createdAt,value
2018-07-19T00:00:47.915Z,3.92
2018-07-19T00:03:19.355Z,3.80
2018-07-19T00:05:50.716Z,4.10
2018-07-19T00:08:21.747Z,3.98
2018-07-19T00:10:54.483Z,3.72
2018-07-19T00:13:29.582Z,3.58
2018-07-19T00:16:02.100Z,3.85
2018-07-19T00:18:37.305Z,4.08
2018-07-19T00:21:07.772Z,4.15
2018-07-19T00:23:39.360Z,3.58
2018-07-19T00:26:10.399Z,3.77
2018-07-19T00:28:40.856Z,4.22
2018-07-19T00:31:12.836Z,3.85
2018-07-19T00:33:44.268Z,4.30
2018-07-19T00:36:17.341Z,4.40
2018-07-19T00:38:50.069Z,3.83
2018-07-19T00:41:22.493Z,4.25
2018-07-19T00:43:54.144Z,4.10
2018-07-19T00:46:24.670Z,4.30
2018-07-19T00:48:57.101Z,4.40
2018-07-19T00:51:31.872Z,4.10
2018-07-19T00:54:03.412Z,4.22
2018-07-19T00:56:36.826Z,4.20
2018-07-19T00:59:07.541Z,3.98
2018-07-19T01:01:54.276Z,4.50
2018-07-19T01:04:26.848Z,4.03
2018-07-19T01:07:01.960Z,4.17
2018-07-19T01:09:35.081Z,4.70
2018-07-19T01:12:05.709Z,4.70
2018-07-19T01:14:37.089Z,4.60
2018-07-19T01:17:08.510Z,4.25
2018-07-19T01:19:38.992Z,4.35
2018-07-19T01:22:16.124Z,4.33
2018-07-19T01:24:45.973Z,4.20
2018-07-19T01:27:21.576Z,4.50
2018-07-19T01:29:58.413Z,4.55
2018-07-19T01:32:41.336Z,4.60
2018-07-19T01:35:17.351Z,4.47
2018-07-19T01:37:48.458Z,4.40
2018-07-19T01:40:19.938Z,4.50
2018-07-19T01:42:50.876Z,4.42
2018-07-19T01:45:26.929Z,4.67
2018-07-19T01:47:59.407Z,4.78
2018-07-19T01:50:33.039Z,4.70
2018-07-19T01:53:05.069Z,4.60
2018-07-19T01:55:36.713Z,4.50
2018-07-19T01:58:05.956Z,4.58
2018-07-19T02:00:42.089Z,4.62
2018-07-19T02:03:13.056Z,5.25
2018-07-19T02:05:46.164Z,4.92
2018-07-19T02:08:16.164Z,4.62
2018-07-19T02:10:52.660Z,5.00
2018-07-19T02:13:22.456Z,4.55
2018-07-19T02:15:52.003Z,5.28
2018-07-19T02:18:24.060Z,5.22
2018-07-19T02:20:56.973Z,4.92
2018-07-19T02:23:26.852Z,4.55
2018-07-19T02:25:56.291Z,4.78
2018-07-19T02:28:26.437Z,4.95
2018-07-19T02:30:59.422Z,5.17
2018-07-19T02:33:35.176Z,5.05
2018-07-19T02:36:07.476Z,5.08
2018-07-19T02:38:39.192Z,5.92
2018-07-19T02:41:09.197Z,4.53
2018-07-19T02:43:39.892Z,5.17
2018-07-19T02:46:10.104Z,4.85
2018-07-19T02:48:39.655Z,5.08
2018-07-19T02:51:11.977Z,4.85
2018-07-19T02:53:41.604Z,5.03
2018-07-19T02:56:12.237Z,4.92
2018-07-19T02:58:42.232Z,5.65
2018-07-19T03:01:14.689Z,5.35
2018-07-19T03:03:48.425Z,5.40
2018-07-19T03:06:25.167Z,5.55
2018-07-19T03:08:59.488Z,5.80
2018-07-19T03:11:29.734Z,6.12
2018-07-19T03:14:05.178Z,5.22
2018-07-19T03:16:37.852Z,5.55
2018-07-19T03:19:17.360Z,5.50
2018-07-19T03:21:48.832Z,6.10
2018-07-19T03:24:25.844Z,5.75
2018-07-19T03:26:59.957Z,5.65
2018-07-19T03:29:44.052Z,5.45
2018-07-19T03:32:23.565Z,5.92
2018-07-19T03:35:01.928Z,5.78
2018-07-19T03:37:39.548Z,5.42
2018-07-19T03:40:11.456Z,5.72
2018-07-19T03:42:52.853Z,5.42
2018-07-19T03:45:25.572Z,5.00
2018-07-19T03:47:57.023Z,5.80
2018-07-19T03:59:28.652Z,5.50
2018-07-19T04:02:04.492Z,5.33
2018-07-19T04:04:34.548Z,5.42
2018-07-19T04:07:04.680Z,5.22
2018-07-19T04:09:34.114Z,5.10
2018-07-19T04:12:03.417Z,5.75
2018-07-19T04:14:32.474Z,5.78
2018-07-19T04:17:02.245Z,5.55
2018-07-19T04:19:31.240Z,5.53
2018-07-19T04:22:00.323Z,5.25
2018-07-19T04:24:30.504Z,5.60
2018-07-19T04:27:00.929Z,5.23
2018-07-19T04:29:30.080Z,5.50
2018-07-19T04:31:59.148Z,5.03
2018-07-19T04:34:29.508Z,4.85
2018-07-19T04:37:00.229Z,5.45
2018-07-19T04:39:29.901Z,5.45
2018-07-19T04:42:00.167Z,5.60
2018-07-19T04:44:30.592Z,5.15
2018-07-19T04:47:01.098Z,4.67
2018-07-19T04:49:34.241Z,5.15
2018-07-19T04:52:04.588Z,5.12
2018-07-19T04:54:35.389Z,5.00
2018-07-19T04:57:08.760Z,4.85
2018-07-19T04:59:39.656Z,5.33
2018-07-19T05:02:11.669Z,5.03
2018-07-19T05:04:41.641Z,4.85
2018-07-19T05:07:13.593Z,4.87
2018-07-19T05:09:46.590Z,5.05
2018-07-19T05:12:18.078Z,5.20
2018-07-19T05:14:49.054Z,4.70
2018-07-19T05:17:20.216Z,4.40
2018-07-19T05:19:53.928Z,5.30
2018-07-19T05:22:29.748Z,4.75
2018-07-19T05:24:59.233Z,5.03
2018-07-19T05:27:30.453Z,4.70
2018-07-19T05:30:00.294Z,5.12
2018-07-19T05:32:33.685Z,4.60
2018-07-19T05:35:03.913Z,5.00
2018-07-19T05:37:35.460Z,5.03
2018-07-19T05:40:07.828Z,5.35
2018-07-19T05:42:39.456Z,4.70
2018-07-19T05:45:10.952Z,4.45
2018-07-19T05:47:40.981Z,5.00
2018-07-19T05:50:11.442Z,4.53
2018-07-19T05:52:42.501Z,4.72
2018-07-19T05:55:12.965Z,4.50
2018-07-19T05:57:45.732Z,4.30
2018-07-19T06:00:15.552Z,4.65
2018-07-19T06:02:45.023Z,4.40
2018-07-19T06:05:15.081Z,4.90
2018-07-19T06:07:45.971Z,4.37
2018-07-19T06:10:18.364Z,4.60
2018-07-19T06:12:49.109Z,4.35
2018-07-19T06:15:20.952Z,4.67
2018-07-19T06:17:52.236Z,4.03
2018-07-19T06:20:23.880Z,4.20
2018-07-19T06:22:55.693Z,4.22
2018-07-19T06:25:31.888Z,3.87
2018-07-19T06:28:01.013Z,4.78
2018-07-19T06:30:33.874Z,3.80
2018-07-19T06:33:03.589Z,4.20
2018-07-19T06:35:33.391Z,4.08
2018-07-19T06:38:05.132Z,4.10
2018-07-19T06:40:37.108Z,3.80
2018-07-19T06:43:12.660Z,4.45
2018-07-19T06:45:46.496Z,3.85
2018-07-19T06:48:20.671Z,4.62
2018-07-19T06:50:50.493Z,3.80
2018-07-19T06:53:23.971Z,4.25
2018-07-19T06:55:54.902Z,4.10
2018-07-19T06:58:24.057Z,3.95
2018-07-19T07:00:56.473Z,3.75
2018-07-19T07:03:27.049Z,4.55
2018-07-19T07:06:02.290Z,3.95
2018-07-19T07:08:35.487Z,3.80
2018-07-19T07:11:05.685Z,3.90
2018-07-19T07:13:36.800Z,3.80
2018-07-19T07:16:06.935Z,3.50
2018-07-19T07:18:36.561Z,3.72
2018-07-19T07:21:07.971Z,3.75
2018-07-19T07:23:43.377Z,3.98
2018-07-19T07:26:18.612Z,3.87
2018-07-19T07:28:50.226Z,3.67
2018-07-19T07:31:22.558Z,3.60
2018-07-19T07:33:53.456Z,3.15
2018-07-19T07:36:24.076Z,3.20
2018-07-19T07:38:54.295Z,3.20
2018-07-19T07:41:26.057Z,2.95
2018-07-19T07:43:58.321Z,3.08
2018-07-19T07:46:30.924Z,3.05
2018-07-19T07:49:00.913Z,3.05
2018-07-19T07:51:33.117Z,2.72
2018-07-19T07:54:02.987Z,2.90
2018-07-19T07:56:35.981Z,2.95
2018-07-19T07:59:05.992Z,2.80
2018-07-19T08:01:38.467Z,2.77
2018-07-19T08:04:10.188Z,3.10
2018-07-19T08:06:41.368Z,2.70
2018-07-19T08:09:12.045Z,2.70
2018-07-19T08:11:42.837Z,2.22
2018-07-19T08:14:12.785Z,2.55
2018-07-19T08:16:43.946Z,2.95
2018-07-19T08:19:14.661Z,2.98
2018-07-19T08:21:46.222Z,2.65
2018-07-19T08:24:16.234Z,2.52
2018-07-19T08:26:49.190Z,2.50
2018-07-19T08:29:24.495Z,2.52
2018-07-19T08:32:00.146Z,2.62
2018-07-19T08:34:32.047Z,2.77
2018-07-19T08:37:01.404Z,2.60
2018-07-19T08:39:38.019Z,2.95
2018-07-19T08:42:11.532Z,2.62
2018-07-19T08:44:42.593Z,2.58
2018-07-19T08:47:16.032Z,2.50
2018-07-19T08:49:48.184Z,2.70
2018-07-19T08:52:23.557Z,2.72
2018-07-19T08:54:54.097Z,2.70
2018-07-19T08:57:25.555Z,2.55
2018-07-19T08:59:56.604Z,2.42
2018-07-19T09:02:26.969Z,2.52
2018-07-19T09:04:56.216Z,2.27
2018-07-19T09:07:28.997Z,2.40
2018-07-19T09:09:59.151Z,2.30
2018-07-19T09:12:32.822Z,2.60
2018-07-19T09:15:04.170Z,2.72
2018-07-19T09:17:36.756Z,2.58
2018-07-19T09:20:09.233Z,2.77
2018-07-19T09:22:45.835Z,2.58
2018-07-19T09:25:17.369Z,2.70
2018-07-19T09:27:49.520Z,2.77
2018-07-19T09:30:21.689Z,2.80
2018-07-19T09:32:55.592Z,2.62
2018-07-19T09:35:30.531Z,2.20
2018-07-19T09:38:03.625Z,2.47
2018-07-19T09:40:37.536Z,2.42
2018-07-19T09:43:13.488Z,2.72
2018-07-19T09:45:45.954Z,2.30
2018-07-19T09:48:19.448Z,2.40
2018-07-19T09:50:51.216Z,2.27
2018-07-19T09:53:23.874Z,2.58
2018-07-19T09:55:57.420Z,2.25
2018-07-19T09:58:29.105Z,2.70
2018-07-19T10:01:02.001Z,2.20
2018-07-19T10:03:37.248Z,2.27
2018-07-19T10:06:09.693Z,2.37
2018-07-19T10:08:43.561Z,2.30
2018-07-19T10:11:16.137Z,2.62
2018-07-19T10:13:48.749Z,2.37
2018-07-19T10:16:19.348Z,2.22
2018-07-19T10:18:49.651Z,2.35
2018-07-19T10:21:23.928Z,2.40
2018-07-19T10:24:00.000Z,2.70
2018-07-19T10:26:30.204Z,2.25
2018-07-19T10:28:59.937Z,2.20
2018-07-19T10:31:30.519Z,2.10
2018-07-19T10:34:05.676Z,2.50
2018-07-19T10:36:40.636Z,2.60
2018-07-19T10:39:11.793Z,2.65
2018-07-19T10:41:45.535Z,1.98
2018-07-19T10:44:15.443Z,2.20
2018-07-19T10:46:46.155Z,2.30
2018-07-19T10:49:21.119Z,2.60
2018-07-19T10:51:56.472Z,2.30
2018-07-19T10:54:28.580Z,2.50
2018-07-19T10:57:00.120Z,2.52
2018-07-19T10:59:31.626Z,2.60
2018-07-19T11:02:06.558Z,2.60
2018-07-19T11:04:35.755Z,2.40
2018-07-19T11:07:06.620Z,2.50
2018-07-19T11:09:37.068Z,2.30
2018-07-19T11:12:09.131Z,2.40
2018-07-19T11:14:41.050Z,2.58
2018-07-19T11:17:10.280Z,2.40
2018-07-19T11:19:45.483Z,2.60
2018-07-19T11:22:15.680Z,2.20
2018-07-19T11:24:45.209Z,2.27
2018-07-19T11:27:14.976Z,2.10
2018-07-19T11:29:50.363Z,2.50
2018-07-19T11:32:19.528Z,2.05
2018-07-19T11:34:49.028Z,2.58
2018-07-19T11:37:18.743Z,2.42
2018-07-19T11:39:50.604Z,2.27
2018-07-19T11:42:22.811Z,2.20
2018-07-19T11:44:54.181Z,2.58
2018-07-19T11:47:30.322Z,2.52
2018-07-19T11:50:01.482Z,2.37
2018-07-19T11:52:32.249Z,2.27
2018-07-19T11:55:08.211Z,2.52
2018-07-19T11:57:46.320Z,2.12
2018-07-19T12:00:20.798Z,2.50
2018-07-19T12:02:56.264Z,2.58
2018-07-19T12:05:27.483Z,2.50
2018-07-19T12:08:00.721Z,2.50
2018-07-19T12:10:31.350Z,2.33
2018-07-19T12:13:09.456Z,2.42
2018-07-19T12:15:52.611Z,2.47
2018-07-19T12:18:29.661Z,2.50
2018-07-19T12:21:18.616Z,2.65
2018-07-19T12:23:59.396Z,2.52
2018-07-19T12:26:37.737Z,2.30
2018-07-19T12:29:14.050Z,2.95
2018-07-19T12:34:35.747Z,2.55
2018-07-19T12:37:17.081Z,2.50
2018-07-19T12:39:56.614Z,2.40
2018-07-19T12:42:28.709Z,2.70
2018-07-19T12:45:04.179Z,2.37
2018-07-19T12:47:42.285Z,2.27
2018-07-19T12:50:18.448Z,2.70
2018-07-19T12:52:54.661Z,2.42
2018-07-19T12:55:27.560Z,2.77
2018-07-19T12:58:03.297Z,2.50
2018-07-19T13:00:33.972Z,2.62
2018-07-19T13:03:04.559Z,2.50
2018-07-19T13:05:37.575Z,2.50
2018-07-19T13:10:44.365Z,2.40
2018-07-19T13:13:17.980Z,3.08
2018-07-19T13:15:47.704Z,2.25
2018-07-19T13:18:16.839Z,2.50
2018-07-19T13:20:46.280Z,2.37
2018-07-19T13:23:15.357Z,2.37
2018-07-19T13:25:44.459Z,2.50
2018-07-19T13:28:13.580Z,2.50
2018-07-19T13:30:42.980Z,2.50
2018-07-19T13:33:12.133Z,2.50
2018-07-19T13:35:41.543Z,2.37
2018-07-19T13:38:12.359Z,2.55
2018-07-19T13:40:43.868Z,2.65
2018-07-19T13:43:12.923Z,2.30
2018-07-19T13:45:42.863Z,2.33
2018-07-19T13:48:13.863Z,2.70
2018-07-19T13:50:45.087Z,2.75
2018-07-19T13:53:43.226Z,2.45
2018-07-19T13:56:12.778Z,2.52
2018-07-19T13:58:43.560Z,2.80
2018-07-19T14:01:13.145Z,2.60
2018-07-19T14:03:44.738Z,2.83
2018-07-19T14:06:15.537Z,2.45
2018-07-19T14:08:46.095Z,2.20
2018-07-19T14:11:18.589Z,2.40
2018-07-19T14:13:47.883Z,2.58
2018-07-19T14:16:23.996Z,2.45
2018-07-19T14:18:54.841Z,2.50
2018-07-19T14:21:26.757Z,2.67
2018-07-19T14:23:59.173Z,2.58
2018-07-19T14:26:33.837Z,2.75
2018-07-19T14:29:03.273Z,2.52
2018-07-19T14:31:35.659Z,2.92
2018-07-19T14:34:07.680Z,2.58
2018-07-19T14:36:37.290Z,2.60
2018-07-19T14:39:13.856Z,2.52
2018-07-19T14:41:43.289Z,2.55
2018-07-19T14:44:14.881Z,2.40
2018-07-19T14:46:45.416Z,2.60
2018-07-19T14:49:17.449Z,2.72
2018-07-19T14:51:50.472Z,2.58
2018-07-19T14:54:24.388Z,2.75
2018-07-19T14:56:55.011Z,2.98
2018-07-19T14:59:24.868Z,2.80
2018-07-19T15:01:54.676Z,2.62
2018-07-19T15:04:23.789Z,2.72
2018-07-19T15:06:56.320Z,2.52
2018-07-19T15:09:26.748Z,2.77
2018-07-19T15:11:57.214Z,2.60
2018-07-19T15:14:27.423Z,2.60
2018-07-19T15:16:57.436Z,2.83
2018-07-19T15:19:27.669Z,2.67
2018-07-19T15:22:01.841Z,2.72
2018-07-19T15:24:31.905Z,2.40
2018-07-19T15:27:06.176Z,2.60
2018-07-19T15:29:36.105Z,2.70
2018-07-19T15:32:05.205Z,2.62
2018-07-19T15:34:39.132Z,2.50
2018-07-19T15:37:09.721Z,2.70
2018-07-19T15:39:45.377Z,2.58
2018-07-19T15:42:14.505Z,2.80
2018-07-19T15:44:48.425Z,2.80
2018-07-19T15:47:23.433Z,2.60
2018-07-19T15:49:53.522Z,2.77
2018-07-19T15:52:29.324Z,2.62
2018-07-19T15:55:00.860Z,2.62
2018-07-19T15:57:35.492Z,2.60
2018-07-19T16:00:07.988Z,2.45
2018-07-19T16:02:37.896Z,2.50
2018-07-19T16:05:09.810Z,2.50
2018-07-19T16:07:42.941Z,2.80
2018-07-19T16:10:15.284Z,2.67
2018-07-19T16:12:47.540Z,2.62
2018-07-19T16:15:20.061Z,2.80
2018-07-19T16:17:54.555Z,2.80
2018-07-19T16:20:25.932Z,2.83
2018-07-19T16:22:57.853Z,2.72
2018-07-19T16:25:31.189Z,2.75
2018-07-19T16:28:04.092Z,2.60
2018-07-19T16:30:33.848Z,2.83
2018-07-19T16:33:09.495Z,2.62
2018-07-19T16:35:44.733Z,2.92
2018-07-19T16:38:14.676Z,3.17
2018-07-19T16:40:47.576Z,2.50
2018-07-19T16:43:20.209Z,2.87
2018-07-19T16:45:53.125Z,2.80
2018-07-19T16:48:23.528Z,2.77
2018-07-19T16:50:57.371Z,2.67
2018-07-19T16:53:26.886Z,2.92
2018-07-19T16:55:59.407Z,2.62
2018-07-19T16:58:30.582Z,2.52
2018-07-19T17:01:05.397Z,2.83
2018-07-19T17:03:37.478Z,2.80
2018-07-19T17:06:09.760Z,2.42
2018-07-19T17:08:39.953Z,2.60
2018-07-19T17:11:10.436Z,2.55
2018-07-19T17:13:41.436Z,2.45
2018-07-19T17:16:15.424Z,2.62
2018-07-19T17:18:45.478Z,2.90
2018-07-19T17:21:15.562Z,2.72
2018-07-19T17:23:50.920Z,2.90
2018-07-19T17:26:20.645Z,2.83
2018-07-19T17:28:52.909Z,2.98
2018-07-19T17:31:25.870Z,2.90
2018-07-19T17:33:58.632Z,2.83
2018-07-19T17:36:33.487Z,2.90
2018-07-19T17:39:03.605Z,2.40
2018-07-19T17:41:33.852Z,2.62
2018-07-19T17:44:05.564Z,2.60
2018-07-19T17:46:36.450Z,3.10
2018-07-19T17:49:07.068Z,2.50
2018-07-19T17:51:36.992Z,2.87
2018-07-19T17:54:08.021Z,2.70
2018-07-19T17:56:38.120Z,2.98
2018-07-19T17:59:09.192Z,2.80
2018-07-19T18:01:38.579Z,2.90
2018-07-19T18:04:08.672Z,2.72
2018-07-19T18:06:44.349Z,2.92
2018-07-19T18:09:28.189Z,3.27
2018-07-19T18:11:58.132Z,2.98
2018-07-19T18:14:31.512Z,2.95
2018-07-19T18:17:02.557Z,3.12
2018-07-19T18:19:39.936Z,3.12
2018-07-19T18:22:11.688Z,2.65
2018-07-19T18:24:43.445Z,2.98
2018-07-19T18:27:19.928Z,2.67
2018-07-19T18:29:55.015Z,2.80
2018-07-19T18:32:33.724Z,3.22
2018-07-19T18:35:03.999Z,3.10
2018-07-19T18:37:34.115Z,2.85
2018-07-19T18:40:08.592Z,3.10
2018-07-19T18:42:41.325Z,3.00
2018-07-19T18:45:17.324Z,2.87
2018-07-19T18:47:49.980Z,3.00
2018-07-19T18:50:24.732Z,2.90
2018-07-19T18:52:55.065Z,2.62
2018-07-19T18:55:33.276Z,3.08
2018-07-19T18:58:08.671Z,2.87
2018-07-19T19:00:43.697Z,3.02
2018-07-19T19:03:13.418Z,2.90
2018-07-19T19:05:46.656Z,2.80
2018-07-19T19:08:25.997Z,3.22
2018-07-19T19:11:02.572Z,3.22
2018-07-19T19:13:33.556Z,3.25
2018-07-19T19:16:03.945Z,3.60
2018-07-19T19:18:34.924Z,3.10
2018-07-19T19:21:05.560Z,3.30
2018-07-19T19:23:47.716Z,3.30
2018-07-19T19:26:23.350Z,3.00
2018-07-19T19:28:57.155Z,2.98
2018-07-19T19:31:32.656Z,3.45
2018-07-19T19:34:10.558Z,3.22
2018-07-19T19:36:44.216Z,3.60
2018-07-19T19:39:19.507Z,3.22
2018-07-19T19:41:57.092Z,3.10
2018-07-19T19:44:29.368Z,3.15
2018-07-19T19:47:00.711Z,2.98
2018-07-19T19:49:36.029Z,3.35
2018-07-19T19:52:05.844Z,3.33
2018-07-19T19:54:35.995Z,3.27
2018-07-19T19:57:09.151Z,3.20
2018-07-19T19:59:39.390Z,3.15
2018-07-19T20:02:16.489Z,3.60
2018-07-19T20:04:45.993Z,3.50
2018-07-19T20:07:16.730Z,3.22
2018-07-19T20:09:49.392Z,3.25
2018-07-19T20:12:20.884Z,3.20
2018-07-19T20:14:50.492Z,3.22
2018-07-19T20:17:23.485Z,3.75
2018-07-19T20:19:53.656Z,3.40
2018-07-19T20:22:23.344Z,3.12
2018-07-19T20:24:52.523Z,3.50
2018-07-19T20:27:22.263Z,3.60
2018-07-19T20:29:55.877Z,3.25
2018-07-19T20:32:26.087Z,3.35
2018-07-19T20:34:56.145Z,3.75
2018-07-19T20:37:26.004Z,3.72
2018-07-19T20:39:55.048Z,3.50
2018-07-19T20:42:25.292Z,3.60
2018-07-19T20:44:55.596Z,3.72
2018-07-19T20:47:25.756Z,3.55
2018-07-19T20:49:57.520Z,3.42
2018-07-19T20:52:31.700Z,3.83
2018-07-19T20:55:05.182Z,3.67
2018-07-19T20:57:34.862Z,3.80
2018-07-19T21:00:09.664Z,4.00
2018-07-19T21:02:44.432Z,3.95
2018-07-19T21:05:16.256Z,3.92
2018-07-19T21:07:46.860Z,3.67
2018-07-19T21:10:18.262Z,3.85
2018-07-19T21:12:49.987Z,3.60
2018-07-19T21:15:21.051Z,4.05
2018-07-19T21:17:49.920Z,3.72
2018-07-19T21:20:22.012Z,4.15
2018-07-19T21:22:53.221Z,4.00
2018-07-19T21:25:42.929Z,3.87
2018-07-19T21:28:21.150Z,4.03
2018-07-19T21:31:06.854Z,4.03
2018-07-19T21:33:42.288Z,4.40
2018-07-19T21:36:15.669Z,4.22
2018-07-19T21:38:47.000Z,4.08
2018-07-19T21:41:26.516Z,4.12
2018-07-19T21:44:03.243Z,4.12
2018-07-19T21:46:43.988Z,4.00
2018-07-19T21:49:24.860Z,4.33
2018-07-19T21:52:02.281Z,4.45
2018-07-19T21:54:37.256Z,4.20
2018-07-19T21:57:18.562Z,4.80
2018-07-19T21:59:55.773Z,4.47
2018-07-19T22:02:25.493Z,4.55
2018-07-19T22:04:59.132Z,4.45
2018-07-19T22:07:35.249Z,4.37
2018-07-19T22:10:07.077Z,4.67
2018-07-19T22:12:42.968Z,4.45
2018-07-19T22:15:13.147Z,4.55
2018-07-19T22:17:53.893Z,4.83
2018-07-19T22:20:23.013Z,4.62
2018-07-19T22:22:52.200Z,5.05
2018-07-19T22:25:21.557Z,4.90
2018-07-19T22:27:50.689Z,5.30
2018-07-19T22:30:19.840Z,4.95
2018-07-19T22:32:49.646Z,5.12
2018-07-19T22:35:18.724Z,4.90
2018-07-19T22:37:47.908Z,5.10
2018-07-19T22:40:17.024Z,5.35
2018-07-19T22:42:46.116Z,5.22
2018-07-19T22:46:44.836Z,5.67
2018-07-19T22:49:15.919Z,5.10
2018-07-19T22:51:45.872Z,4.83
2018-07-19T22:54:15.480Z,4.83
2018-07-19T22:56:45.204Z,4.58
2018-07-19T22:59:15.396Z,4.30
2018-07-19T23:01:45.287Z,4.92
2018-07-19T23:04:16.444Z,4.72
2018-07-19T23:06:47.321Z,4.72
2018-07-19T23:09:16.620Z,4.62
2018-07-19T23:11:46.116Z,4.78
2018-07-19T23:14:15.232Z,4.60
2018-07-19T23:16:47.337Z,4.30
2018-07-19T23:19:16.664Z,4.53
2018-07-19T23:21:47.072Z,4.50
2018-07-19T23:24:18.149Z,5.15
2018-07-19T23:26:48.480Z,5.10
2018-07-19T23:29:18.701Z,5.10
2018-07-19T23:31:49.083Z,4.90
2018-07-19T23:34:21.056Z,4.67
2018-07-19T23:36:56.024Z,5.30
2018-07-19T23:39:29.421Z,4.80
2018-07-19T23:42:06.164Z,5.05
2018-07-19T23:44:41.393Z,5.28
2018-07-19T23:47:17.992Z,5.30
2018-07-19T23:49:48.332Z,5.40
2018-07-19T23:52:18.657Z,5.25
2018-07-19T23:54:49.093Z,5.40
2018-07-19T23:57:19.312Z,5.47
2018-07-19T23:59:50.405Z,5.12
